Time;durP1;ratioP1;P1;durP2;ratioP2;P2;SDS_P1;SDS_P2;PMS_P1;PMS_P2;Temp;Humidity;BMP_temperature;BMP_pressure;BME280_temperature;BME280_humidity;BME280_pressure;Samples;Min_cycle;Max_cycle;Signal;HPM_P1;HPM_P2
2022/02/28 00:00:43;;;;;;;19.50;9.00;;;;;;;-3.13;67.09;102197.16;1642316;87;26263;-72
2022/02/28 00:03:10;;;;;;;17.90;9.00;;;;;;;-3.14;67.22;102201.63;1656843;86;25428;-71
2022/02/28 00:05:37;;;;;;;17.87;8.93;;;;;;;-3.19;67.15;102200.00;1641468;87;27378;-71
2022/02/28 00:08:03;;;;;;;19.55;9.35;;;;;;;-3.20;67.56;102206.30;1656721;86;25636;-71
2022/02/28 00:10:30;;;;;;;17.27;9.43;;;;;;;-3.22;67.85;102205.16;1641866;87;25447;-72
2022/02/28 00:12:57;;;;;;;23.15;10.32;;;;;;;-3.24;67.84;102201.82;1656590;86;25710;-71
2022/02/28 00:15:23;;;;;;;22.20;10.28;;;;;;;-3.25;68.02;102198.02;1628482;87;25595;-71
2022/02/28 00:17:50;;;;;;;19.25;9.63;;;;;;;-3.26;68.09;102195.06;1656791;86;27327;-72
2022/02/28 00:20:17;;;;;;;22.07;10.15;;;;;;;-3.26;68.34;102199.03;1656536;86;25893;-71
2022/02/28 00:22:44;;;;;;;19.27;8.78;;;;;;;-3.29;68.38;102188.78;1628378;88;25619;-71
2022/02/28 00:25:12;;;;;;;23.07;9.33;;;;;;;-3.32;68.41;102191.28;1656782;86;25700;-71
2022/02/28 00:27:39;;;;;;;21.10;9.53;;;;;;;-3.33;68.37;102191.45;1656900;86;25772;-71
2022/02/28 00:30:08;;;;;;;19.00;9.40;;;;;;;-3.35;68.49;102196.06;1641326;87;27400;-72
2022/02/28 00:32:38;;;;;;;18.98;10.08;;;;;;;-3.38;68.16;102191.95;1656699;86;25731;-71
2022/02/28 00:35:07;;;;;;;21.37;9.95;;;;;;;-3.39;68.47;102191.61;1628525;87;25784;-71
2022/02/28 00:37:34;;;;;;;18.45;9.85;;;;;;;-3.43;68.40;102187.16;1657120;86;25757;-71
2022/02/28 00:40:01;;;;;;;19.45;10.18;;;;;;;-3.45;68.46;102188.34;1656989;86;25725;-73
2022/02/28 00:42:28;;;;;;;21.82;10.08;;;;;;;-3.48;68.65;102181.55;1628542;87;27866;-71
2022/02/28 00:44:54;;;;;;;20.55;9.90;;;;;;;-3.50;68.73;102176.93;1656732;85;25674;-73
2022/02/28 00:47:21;;;;;;;19.57;9.65;;;;;;;-3.52;68.81;102180.72;1656953;86;25573;-72
2022/02/28 00:49:47;;;;;;;19.02;9.15;;;;;;;-3.54;68.93;102178.75;1641962;87;25618;-71
2022/02/28 00:52:13;;;;;;;17.45;8.88;;;;;;;-3.55;68.82;102186.37;1656579;86;25583;-71
2022/02/28 00:54:40;;;;;;;20.45;9.08;;;;;;;-3.58;69.05;102182.23;1642278;87;27333;-71
2022/02/28 00:57:06;;;;;;;21.90;10.15;;;;;;;-3.61;69.10;102180.77;1656615;86;25787;-72
2022/02/28 00:59:33;;;;;;;20.68;9.98;;;;;;;-3.65;69.26;102170.69;1628954;88;25666;-72
2022/02/28 01:01:59;;;;;;;19.57;9.48;;;;;;;-3.64;69.31;102174.99;1657440;86;25712;-71
2022/02/28 01:04:25;;;;;;;21.90;9.73;;;;;;;-3.68;69.03;102174.48;1657580;86;25447;-70
2022/02/28 01:06:52;;;;;;;15.05;8.40;;;;;;;-3.70;68.90;102177.79;1641546;87;27407;-70
2022/02/28 01:09:19;;;;;;;16.82;9.10;;;;;;;-3.73;68.76;102178.63;1656708;86;25705;-71
2022/02/28 01:11:45;;;;;;;15.23;7.15;;;;;;;-3.79;69.17;102176.98;1642184;86;25701;-71
2022/02/28 01:14:12;;;;;;;17.60;7.37;;;;;;;-3.82;69.29;102175.17;1657018;86;25785;-71
2022/02/28 01:16:38;;;;;;;18.48;7.72;;;;;;;-3.83;69.35;102177.00;1642039;87;25753;-70
2022/02/28 01:19:04;;;;;;;19.90;7.55;;;;;;;-3.81;69.52;102173.69;1659176;86;27872;-71
2022/02/28 01:21:31;;;;;;;17.60;7.65;;;;;;;-3.77;69.42;102178.14;1623456;87;25806;-71
2022/02/28 01:23:57;;;;;;;17.82;8.68;;;;;;;-3.71;69.52;102171.34;1660198;86;25278;-71
2022/02/28 01:26:23;;;;;;;19.02;8.05;;;;;;;-3.66;69.42;102168.55;1660257;86;25677;-71
2022/02/28 01:28:50;;;;;;;17.35;7.65;;;;;;;-3.60;69.36;102169.17;1660187;84;25239;-70
2022/02/28 01:31:17;;;;;;;14.80;8.03;;;;;;;-3.55;69.40;102167.86;1644343;85;27427;-72
2022/02/28 01:33:43;;;;;;;15.45;8.15;;;;;;;-3.50;69.34;102174.28;1659831;84;25317;-73
2022/02/28 01:36:10;;;;;;;15.10;7.53;;;;;;;-3.43;69.32;102170.47;1645342;84;25255;-73
2022/02/28 01:38:36;;;;;;;18.70;8.78;;;;;;;-3.39;69.06;102174.41;1660188;86;25618;-71
2022/02/28 01:41:03;;;;;;;17.70;8.63;;;;;;;-3.38;68.88;102183.50;1659875;84;25261;-74
2022/02/28 01:43:29;;;;;;;14.85;8.30;;;;;;;-3.42;68.78;102188.83;1660444;86;27388;-72
2022/02/28 01:45:57;;;;;;;16.90;8.85;;;;;;;-3.47;68.73;102181.89;1643190;86;25443;-71
2022/02/28 01:48:23;;;;;;;15.45;8.55;;;;;;;-3.49;68.83;102186.53;1655178;86;25220;-72
2022/02/28 01:50:50;;;;;;;18.98;9.28;;;;;;;-3.53;68.98;102185.20;1642589;87;25707;-71
2022/02/28 01:53:16;;;;;;;20.45;8.88;;;;;;;-3.59;68.96;102189.36;1655702;86;25236;-72
2022/02/28 01:55:43;;;;;;;18.02;9.28;;;;;;;-3.63;69.15;102181.91;1642890;87;27347;-73
2022/02/28 01:58:09;;;;;;;21.17;9.65;;;;;;;-3.69;69.03;102195.83;1655083;83;25439;-72
2022/02/28 02:00:38;;;;;;;20.35;9.55;;;;;;;-3.74;69.28;102202.94;1642632;84;25382;-75
2022/02/28 02:03:05;;;;;;;18.55;9.83;;;;;;;-3.81;69.52;102196.16;1614375;86;25628;-74
2022/02/28 02:05:32;;;;;;;20.25;10.25;;;;;;;-3.86;69.51;102197.66;1655714;83;25277;-73
2022/02/28 02:07:59;;;;;;;22.60;11.50;;;;;;;-3.91;69.76;102192.05;1627533;84;27482;-72
2022/02/28 02:10:25;;;;;;;23.47;11.03;;;;;;;-3.93;69.81;102185.60;1635383;84;25444;-72
2022/02/28 02:12:52;;;;;;;19.30;10.32;;;;;;;-3.97;69.98;102188.23;1627641;88;25251;-72
2022/02/28 02:15:19;;;;;;;21.80;10.48;;;;;;;-4.00;70.09;102192.05;1655564;86;25594;-72
2022/02/28 02:17:45;;;;;;;19.27;8.85;;;;;;;-4.04;70.23;102192.53;1642092;87;25215;-72
2022/02/28 02:20:24;;;;;;;21.82;9.83;;;;;;;-4.10;70.05;102188.74;1652414;86;27331;-72
2022/02/28 02:23:00;;;;;;;22.97;11.17;;;;;;;-4.15;70.11;102189.23;1638889;87;25758;-72
2022/02/28 02:25:26;;;;;;;20.12;9.43;;;;;;;-4.19;70.29;102195.84;1652407;86;25638;-73
2022/02/28 02:27:53;;;;;;;23.52;10.78;;;;;;;-4.22;70.46;102189.56;1639888;87;25678;-72
2022/02/28 02:30:21;;;;;;;18.32;10.55;;;;;;;-4.26;70.56;102188.22;1652187;86;25619;-72
2022/02/28 02:32:48;;;;;;;23.85;11.05;;;;;;;-4.29;70.32;102191.69;1624362;88;27897;-72
2022/02/28 02:35:14;;;;;;;19.80;9.55;;;;;;;-4.33;70.52;102192.52;1652263;86;25639;-72
2022/02/28 02:37:41;;;;;;;21.85;9.88;;;;;;;-4.35;70.59;102187.89;1652211;86;26255;-72
2022/02/28 02:40:09;;;;;;;22.50;10.70;;;;;;;-4.39;70.64;102194.00;1639787;87;26170;-72
2022/02/28 02:42:36;;;;;;;22.42;10.72;;;;;;;-4.41;70.88;102188.06;1652455;86;25754;-73
2022/02/28 02:45:03;;;;;;;23.27;10.48;;;;;;;-4.43;71.05;102182.09;1625430;87;27532;-72
2022/02/28 02:47:29;;;;;;;26.75;10.78;;;;;;;-4.46;71.20;102183.76;1656989;86;25686;-72
2022/02/28 02:49:56;;;;;;;25.77;10.80;;;;;;;-4.50;71.13;102192.48;1640174;87;25631;-72
2022/02/28 02:52:22;;;;;;;23.10;11.20;;;;;;;-4.53;71.20;102186.22;1656950;86;26283;-72
2022/02/28 02:54:49;;;;;;;21.07;11.08;;;;;;;-4.53;71.48;102190.66;1628546;87;25600;-72
2022/02/28 02:57:18;;;;;;;20.50;9.15;;;;;;;-4.55;71.22;102191.32;1656883;86;26905;-72
2022/02/28 02:59:44;;;;;;;23.32;10.48;;;;;;;-4.59;71.38;102192.64;1656801;86;25671;-72
2022/02/28 03:02:11;;;;;;;21.02;10.72;;;;;;;-4.61;71.59;102195.95;1628164;88;26262;-72
2022/02/28 03:04:37;;;;;;;18.30;9.88;;;;;;;-4.65;71.69;102196.73;1657005;86;25565;-72
2022/02/28 03:07:17;;;;;;;19.12;9.83;;;;;;;-4.69;71.75;102191.45;1640188;87;25620;-72
2022/02/28 03:09:45;;;;;;;20.10;9.20;;;;;;;-4.71;71.79;102198.22;1634260;86;27398;-72
2022/02/28 03:12:13;;;;;;;20.43;10.03;;;;;;;-4.76;71.76;102193.91;1640358;87;25813;-72
2022/02/28 07:42:10;;;;;;;11.18;5.65;;;;;;;4.55;63.16;102351.15;1681854;83;25600;-74
2022/02/28 07:44:37;;;;;;;8.53;4.95;;;;;;;4.94;62.32;102355.03;1662672;84;25424;-74
2022/02/28 07:47:05;;;;;;;10.55;5.28;;;;;;;5.27;61.54;102358.75;1735486;82;27342;-74
2022/02/28 07:49:35;;;;;;;10.23;5.22;;;;;;;5.64;60.84;102364.12;1735206;82;25675;-74
2022/02/28 07:52:00;;;;;;;10.13;5.30;;;;;;;6.33;59.72;102370.56;1707828;83;25652;-74
2022/02/28 07:54:27;;;;;;;9.85;5.35;;;;;;;7.25;57.94;102370.09;1705599;82;25826;-73
2022/02/28 07:56:54;;;;;;;7.75;4.90;;;;;;;7.96;56.46;102374.48;1732414;82;25623;-73
2022/02/28 07:59:20;;;;;;;10.32;5.35;;;;;;;8.67;55.72;102374.97;1730825;82;27325;-74
2022/02/28 08:01:47;;;;;;;10.65;5.70;;;;;;;9.26;54.27;102378.56;1731458;81;25687;-74
2022/02/28 08:04:13;;;;;;;8.20;4.72;;;;;;;9.78;53.66;102380.02;1729891;82;25697;-73
2022/02/28 08:06:40;;;;;;;11.03;6.45;;;;;;;10.28;52.31;102380.30;1729867;82;25707;-73
2022/02/28 08:09:07;;;;;;;10.65;5.85;;;;;;;10.76;50.73;102386.39;1729631;82;25639;-73
2022/02/28 08:11:33;;;;;;;11.22;5.65;;;;;;;11.10;49.93;102382.87;1703340;82;27345;-73
2022/02/28 08:14:00;;;;;;;11.18;5.45;;;;;;;11.36;48.69;102378.40;1729687;82;26329;-73
2022/02/28 08:16:26;;;;;;;10.55;5.92;;;;;;;11.49;48.30;102385.25;1729859;82;25725;-73
2022/02/28 08:18:53;;;;;;;16.82;5.97;;;;;;;11.40;47.47;102387.62;1729933;82;26295;-73
2022/02/28 08:21:20;;;;;;;9.23;5.33;;;;;;;11.32;47.09;102391.38;1729776;82;26323;-73
2022/02/28 08:23:46;;;;;;;6.85;4.80;;;;;;;11.28;47.01;102390.28;1726395;82;27326;-73
2022/02/28 08:26:12;;;;;;;10.13;5.08;;;;;;;11.32;46.99;102388.14;1729861;82;25681;-73
2022/02/28 08:28:39;;;;;;;6.50;4.78;;;;;;;11.46;46.54;102384.94;1729684;82;25765;-73
2022/02/28 08:31:06;;;;;;;9.00;4.70;;;;;;;11.51;46.07;102389.02;1729872;82;26278;-73
2022/02/28 08:33:32;;;;;;;7.92;5.10;;;;;;;11.62;45.62;102393.42;1729942;82;25769;-73
2022/02/28 08:35:59;;;;;;;7.12;5.28;;;;;;;11.81;45.20;102396.47;1729786;82;28131;-73
2022/02/28 08:38:25;;;;;;;12.63;5.92;;;;;;;11.87;44.68;102396.78;1729618;82;25693;-73
2022/02/28 08:40:52;;;;;;;9.68;5.28;;;;;;;12.08;44.38;102383.30;1702931;82;25695;-73
2022/02/28 08:43:18;;;;;;;10.15;5.17;;;;;;;12.18;44.24;102387.94;1727388;82;26234;-76
2022/02/28 08:45:45;;;;;;;9.78;5.28;;;;;;;12.32;43.58;102392.55;1727567;82;25730;-74
2022/02/28 08:48:12;;;;;;;8.68;4.40;;;;;;;12.36;43.37;102390.66;1727116;82;27382;-73
2022/02/28 08:50:38;;;;;;;9.80;4.83;;;;;;;12.47;42.43;102393.13;1726586;82;25857;-75
2022/02/28 08:53:05;;;;;;;7.70;4.80;;;;;;;12.55;42.15;102395.86;1727183;82;25761;-74
2022/02/28 08:55:32;;;;;;;10.08;4.50;;;;;;;12.73;41.97;102390.41;1727436;82;26747;-73
2022/02/28 08:57:59;;;;;;;9.08;5.10;;;;;;;12.82;41.24;102390.15;1727240;83;25672;-74
2022/02/28 09:00:25;;;;;;;7.92;4.55;;;;;;;13.08;41.41;102394.99;1723070;82;27341;-73
2022/02/28 09:02:52;;;;;;;7.75;4.45;;;;;;;13.30;41.08;102399.30;1689528;84;25786;-74
2022/02/28 09:05:18;;;;;;;7.12;4.80;;;;;;;13.52;40.62;102394.92;1689252;84;25798;-73
2022/02/28 09:07:46;;;;;;;7.12;4.40;;;;;;;13.52;39.72;102394.92;1689406;84;25866;-74
2022/02/28 09:10:13;;;;;;;7.75;4.20;;;;;;;13.75;39.89;102391.28;1696140;84;25701;-74
2022/02/28 09:12:43;;;;;;;6.00;4.22;;;;;;;13.75;38.27;102396.16;1695813;84;27387;-74
2022/02/28 09:15:10;;;;;;;8.10;3.87;;;;;;;13.62;38.30;102391.32;1695497;83;25635;-73
2022/02/28 09:17:36;;;;;;;7.60;4.55;;;;;;;13.91;39.26;102394.73;1695738;84;25751;-74
2022/02/28 09:20:05;;;;;;;7.08;3.87;;;;;;;14.34;39.30;102395.83;1644784;86;25942;-74
2022/02/28 09:22:32;;;;;;;7.05;3.35;;;;;;;14.63;37.69;102401.11;1652509;86;25735;-74
2022/02/28 09:24:58;;;;;;;5.45;3.95;;;;;;;14.52;37.27;102400.33;1652262;86;27327;-72
2022/02/28 09:27:26;;;;;;;6.80;3.72;;;;;;;14.78;37.77;102400.97;1652143;86;25744;-72
2022/02/28 09:29:52;;;;;;;7.60;3.80;;;;;;;15.22;37.81;102410.91;1652104;86;26468;-71
2022/02/28 09:32:19;;;;;;;5.50;3.30;;;;;;;15.39;36.42;102409.09;1629850;86;25703;-70
2022/02/28 09:34:47;;;;;;;6.10;3.58;;;;;;;15.39;36.00;102405.53;1652195;86;25846;-72
2022/02/28 09:37:14;;;;;;;9.33;3.40;;;;;;;15.36;35.33;102417.84;1652138;86;27326;-71
2022/02/28 09:39:40;;;;;;;6.10;3.30;;;;;;;15.29;35.34;102414.09;1651985;86;25719;-72
2022/02/28 09:42:08;;;;;;;4.92;3.27;;;;;;;15.46;35.56;102419.09;1648168;86;25800;-72
2022/02/28 09:44:35;;;;;;;4.55;3.00;;;;;;;15.59;35.15;102420.84;1666549;84;25712;-72
2022/02/28 09:47:02;;;;;;;6.17;3.65;;;;;;;15.45;33.54;102415.28;1693536;84;25723;-72
2022/02/28 09:49:29;;;;;;;7.72;4.37;;;;;;;15.28;34.18;102415.19;1693507;84;27963;-72
2022/02/28 09:51:55;;;;;;;4.62;3.25;;;;;;;15.58;34.33;102422.77;1693394;84;25711;-72
2022/02/28 09:54:22;;;;;;;5.47;3.27;;;;;;;15.77;33.88;102419.31;1693826;83;25697;-72
2022/02/28 09:56:50;;;;;;;6.45;3.00;;;;;;;16.02;33.88;102420.86;1693949;83;25679;-72
2022/02/28 09:59:20;;;;;;;5.90;2.60;;;;;;;16.60;33.50;102426.02;1694218;83;25761;-72
2022/02/28 10:01:47;;;;;;;4.62;2.58;;;;;;;16.86;32.71;102416.05;1694501;83;27320;-72
2022/02/28 10:04:15;;;;;;;3.98;2.55;;;;;;;17.23;32.07;102416.20;1693433;84;25750;-72
2022/02/28 10:06:48;;;;;;;4.33;2.98;;;;;;;17.69;31.73;102418.02;1665901;84;25810;-73
2022/02/28 10:09:18;;;;;;;5.15;2.75;;;;;;;17.62;30.24;102421.73;1692538;82;25770;-73
2022/02/28 10:11:51;;;;;;;4.45;2.60;;;;;;;17.61;30.68;102424.23;1693594;84;25701;-73
2022/02/28 10:14:18;;;;;;;7.03;2.80;;;;;;;17.85;30.20;102421.27;1693759;84;28168;-72
2022/02/28 10:16:50;;;;;;;4.95;2.60;;;;;;;18.07;29.57;102421.34;1693618;84;25652;-72
2022/02/28 10:19:23;;;;;;;6.78;2.75;;;;;;;18.44;29.74;102419.39;1693623;84;25815;-72
2022/02/28 10:21:55;;;;;;;6.12;2.27;;;;;;;19.17;29.65;102416.48;1693611;84;25679;-71
2022/02/28 10:24:29;;;;;;;4.97;2.50;;;;;;;19.18;28.59;102413.16;1693525;83;26333;-71
2022/02/28 10:26:57;;;;;;;4.92;2.30;;;;;;;19.18;27.99;102412.59;1693470;84;27306;-71
2022/02/28 10:29:31;;;;;;;5.62;2.35;;;;;;;19.49;27.95;102408.19;1693341;84;25640;-71
2022/02/28 10:32:02;;;;;;;9.85;5.47;;;;;;;19.84;27.34;102421.46;1694083;83;25573;-71
2022/02/28 10:35:59;;;;;;;5.25;2.58;;;;;;;19.79;26.82;102417.50;1693373;83;26273;-72
2022/02/28 10:37:05;;;;;;;6.15;2.25;;;;;;;19.99;26.82;102417.45;1689854;84;25819;-71
2022/02/28 10:39:39;;;;;;;5.03;2.20;;;;;;;20.21;26.65;102415.12;1697720;83;28242;-72
2022/02/28 10:42:14;;;;;;;3.70;2.02;;;;;;;20.48;25.81;102418.09;1703891;83;26043;-73
2022/02/28 10:44:42;;;;;;;5.10;2.87;;;;;;;20.65;25.39;102420.59;1704648;83;25870;-72
2022/02/28 10:47:13;;;;;;;4.47;2.20;;;;;;;20.68;25.13;102420.73;1703609;83;26428;-72
2022/02/28 10:49:41;;;;;;;2.70;2.27;;;;;;;20.99;25.48;102411.43;1677913;84;25714;-72
2022/02/28 10:52:12;;;;;;;3.85;2.33;;;;;;;21.59;25.23;102413.72;1741196;81;27363;-72
2022/02/28 10:54:45;;;;;;;3.52;2.25;;;;;;;21.93;24.68;102406.36;1719836;82;26252;-72
2022/02/28 10:57:18;;;;;;;3.90;2.15;;;;;;;22.17;24.61;102411.19;1741031;82;25677;-71
2022/02/28 10:59:55;;;;;;;3.12;2.20;;;;;;;22.18;23.18;102405.89;1741016;82;26146;-72
2022/02/28 11:02:33;;;;;;;2.67;2.37;;;;;;;22.04;22.40;102416.98;1741108;82;25777;-72
2022/02/28 11:05:17;;;;;;;3.92;1.55;;;;;;;21.96;23.00;102413.13;1720338;82;27307;-72
2022/02/28 11:07:52;;;;;;;7.15;2.05;;;;;;;21.93;22.45;102412.42;1740826;82;26262;-72
2022/02/28 11:10:20;;;;;;;3.67;2.30;;;;;;;22.30;22.50;102410.69;1741001;82;25681;-72
2022/02/28 11:12:49;;;;;;;4.03;1.60;;;;;;;22.65;21.99;102408.98;1720206;82;26162;-72
2022/02/28 11:15:20;;;;;;;2.77;1.72;;;;;;;22.71;22.06;102412.33;1744021;80;25702;-72
2022/02/28 11:17:50;;;;;;;4.12;1.72;;;;;;;23.17;21.83;102405.41;1759961;81;27881;-73
2022/02/28 11:20:22;;;;;;;2.75;1.70;;;;;;;23.58;21.69;102401.62;1760296;81;25763;-71
2022/02/28 11:22:51;;;;;;;4.65;2.35;;;;;;;23.82;21.36;102400.79;1760306;81;25713;-73
2022/02/28 11:25:21;;;;;;;4.65;2.27;;;;;;;23.99;20.67;102405.23;1760442;81;25737;-72
2022/02/28 11:27:50;;;;;;;3.22;2.20;;;;;;;23.82;20.75;102402.17;1740504;81;25828;-71
2022/02/28 11:30:23;;;;;;;3.40;2.22;;;;;;;23.94;20.63;102391.67;1760584;81;27350;-72
2022/02/28 11:33:01;;;;;;;2.12;1.80;;;;;;;23.80;20.70;102396.72;1760146;81;25693;-72
2022/02/28 11:35:53;;;;;;;2.47;1.95;;;;;;;23.67;20.33;102396.75;1759584;80;25380;-72
2022/02/28 11:38:28;;;;;;;3.15;2.05;;;;;;;23.13;20.72;102395.06;1760409;81;25792;-72
2022/02/28 11:41:04;;;;;;;4.45;2.10;;;;;;;22.18;20.43;102402.34;1760535;81;26333;-71
2022/02/28 11:43:40;;;;;;;3.90;1.65;;;;;;;21.44;20.78;102401.87;1762456;80;28269;-72
2022/02/28 11:46:11;;;;;;;4.30;2.75;;;;;;;20.97;20.76;102396.41;1752867;81;25716;-72
2022/02/28 11:48:51;;;;;;;3.72;2.50;;;;;;;20.59;21.24;102408.13;1762915;80;26413;-72
2022/02/28 11:51:36;;;;;;;3.05;1.85;;;;;;;20.41;21.87;102402.64;1742965;81;25701;-71
2022/02/28 11:54:19;;;;;;;3.27;1.60;;;;;;;20.23;21.95;102395.56;1763610;79;25684;-72
2022/02/28 11:56:49;;;;;;;3.30;1.80;;;;;;;20.13;21.69;102395.31;1763104;79;27948;-72
2022/02/28 11:59:27;;;;;;;4.85;2.02;;;;;;;19.92;21.55;102393.75;1762829;81;26287;-73
2022/02/28 12:01:58;;;;;;;4.85;2.35;;;;;;;19.33;21.56;102405.08;1763106;81;25771;-73
2022/02/28 12:04:41;;;;;;;3.72;1.98;;;;;;;19.16;21.95;102391.53;1743211;81;25837;-78
2022/02/28 12:07:15;;;;;;;3.05;1.82;;;;;;;18.92;22.14;102394.66;1765936;81;25490;-85
2022/02/28 12:09:46;;;;;;;3.60;1.87;;;;;;;18.48;22.28;102388.88;1766139;79;27310;-82
2022/02/28 12:12:27;;;;;;;5.97;3.47;;;;;;;17.97;23.81;102395.56;1765493;81;25648;-85
2022/02/28 12:15:05;;;;;;;12.40;6.58;;;;;;;17.82;24.08;102389.02;1765459;81;25732;-82
2022/02/28 12:17:40;;;;;;;3.25;2.20;;;;;;;17.67;23.62;102394.26;1763974;81;25724;-83
2022/02/28 12:20:29;;;;;;;28.27;15.83;;;;;;;17.36;23.73;102391.59;1764232;81;25704;-85
2022/02/28 12:23:08;;;;;;;;;;;;;;;17.16;24.52;102395.56;1746847;81;27399;-85
2022/02/28 12:25:40;;;;;;;5.65;2.83;;;;;;;16.95;24.46;102388.84;1767473;81;25314;-84
2022/02/28 12:28:31;;;;;;;4.53;2.60;;;;;;;16.81;24.43;102381.95;1767208;81;25439;-86
2022/02/28 12:31:10;;;;;;;3.72;2.62;;;;;;;16.78;24.33;102381.18;1744813;81;25707;-85
2022/02/28 12:33:41;;;;;;;6.92;2.47;;;;;;;16.82;24.73;102387.66;1764730;81;28874;-86
2022/02/28 12:36:15;;;;;;;4.80;2.25;;;;;;;16.88;25.20;102390.59;1764107;81;27428;-85
2022/02/28 12:38:49;;;;;;;4.90;2.22;;;;;;;16.92;24.97;102395.70;1763985;81;25308;-85
2022/02/28 12:41:36;;;;;;;5.92;2.20;;;;;;;16.87;25.27;102394.99;1763820;81;25726;-84
2022/02/28 12:44:09;;;;;;;5.58;1.92;;;;;;;16.83;24.93;102393.95;1764334;80;25778;-83
2022/02/28 12:46:44;;;;;;;3.27;2.00;;;;;;;16.71;24.38;102392.50;1757995;81;25676;-84
2022/02/28 12:49:15;;;;;;;3.90;2.40;;;;;;;16.02;24.16;102369.00;1714355;83;27314;-84
2022/02/28 12:51:43;;;;;;;4.25;2.22;;;;;;;15.92;25.00;102400.53;1693837;83;25774;-83
2022/02/28 12:54:23;;;;;;;3.45;2.35;;;;;;;15.96;25.50;102394.77;1714468;83;25723;-83
2022/02/28 12:56:58;;;;;;;2.90;2.30;;;;;;;15.87;25.01;102391.89;1714467;83;25603;-83
2022/02/28 12:59:56;;;;;;;3.62;2.50;;;;;;;15.61;25.26;102395.45;1715806;83;25395;-83
2022/02/28 13:02:16;;;;;;;4.25;2.27;;;;;;;15.56;25.25;102385.97;1714986;83;27282;-82
2022/02/28 13:04:55;;;;;;;;;;;;;;;15.25;25.04;102384.96;1717315;83;25745;-84
2022/02/28 13:07:22;;;;;;;3.67;2.40;;;;;;;15.17;25.46;102389.68;1714865;83;25246;-83
2022/02/28 13:09:49;;;;;;;4.65;2.35;;;;;;;15.23;26.03;102390.70;1714898;83;26236;-83
2022/02/28 13:12:31;;;;;;;4.75;2.47;;;;;;;15.39;26.14;102386.44;1715227;83;25332;-83
2022/02/28 13:14:58;;;;;;;2.58;1.98;;;;;;;15.33;25.48;102382.16;1694492;83;27319;-83
2022/02/28 13:17:27;;;;;;;6.62;2.77;;;;;;;15.19;26.04;102383.38;1714527;83;25715;-81
2022/02/28 13:19:56;;;;;;;4.77;2.10;;;;;;;15.19;26.45;102382.86;1714792;83;25660;-82
2022/02/28 13:22:23;;;;;;;4.45;2.70;;;;;;;15.20;25.94;102377.64;1716110;83;26403;-83
2022/02/28 13:24:50;;;;;;;4.75;2.27;;;;;;;15.24;26.14;102375.98;1716692;83;25312;-82
2022/02/28 13:27:17;;;;;;;16.82;8.15;;;;;;;15.26;26.10;102378.42;1715480;83;27318;-81
2022/02/28 13:29:44;;;;;;;17.17;10.10;;;;;;;15.06;25.33;102378.09;1694207;83;26397;-80
2022/02/28 13:32:15;;;;;;;5.95;2.40;;;;;;;14.72;25.23;102384.40;1701355;84;25638;-80
2022/02/28 13:34:45;;;;;;;4.20;2.15;;;;;;;14.51;25.42;102385.10;1714299;83;25600;-81
2022/02/28 13:37:20;;;;;;;7.00;3.85;;;;;;;14.18;25.46;102377.44;1686410;83;25455;-80
2022/02/28 13:39:49;;;;;;;8.55;5.62;;;;;;;14.05;26.14;102386.23;1712991;82;27549;-80
2022/02/28 13:42:22;;;;;;;7.75;4.62;;;;;;;13.96;26.19;102383.81;1708341;82;26291;-80
2022/02/28 13:44:51;;;;;;;7.90;3.37;;;;;;;13.83;26.56;102383.34;1701696;84;25450;-80
2022/02/28 13:47:23;;;;;;;6.33;3.00;;;;;;;13.87;26.52;102380.88;1701764;83;26273;-81
2022/02/28 13:49:59;;;;;;;3.50;2.30;;;;;;;13.89;26.78;102382.77;1702097;84;25674;-81
2022/02/28 13:52:29;;;;;;;4.50;2.00;;;;;;;13.88;26.81;102377.62;1701413;84;27304;-80
2022/02/28 13:55:02;;;;;;;3.60;1.72;;;;;;;13.92;26.77;102380.05;1701603;84;25894;-81
2022/02/28 13:57:34;;;;;;;3.58;2.05;;;;;;;13.92;26.81;102383.56;1701550;84;25701;-81
2022/02/28 14:00:15;;;;;;;3.58;2.27;;;;;;;13.88;26.49;102381.16;1692665;84;25637;-79
2022/02/28 14:02:58;;;;;;;2.58;2.27;;;;;;;13.77;26.81;102385.01;1716087;81;26545;-79
2022/02/28 14:05:39;;;;;;;4.08;2.47;;;;;;;13.74;27.30;102386.92;1709443;81;27281;-79
2022/02/28 14:08:13;;;;;;;5.37;2.50;;;;;;;13.62;27.11;102380.45;1715951;82;26359;-79
2022/02/28 14:10:43;;;;;;;5.72;2.83;;;;;;;13.51;26.89;102383.77;1718568;81;25717;-78
2022/02/28 14:13:29;;;;;;;5.67;2.62;;;;;;;13.39;26.95;102377.83;1724655;82;26229;-78
2022/02/28 14:16:20;;;;;;;5.62;2.98;;;;;;;13.31;27.62;102372.37;1709447;83;25739;-77
2022/02/28 14:19:17;;;;;;;4.42;3.10;;;;;;;13.07;27.03;102370.27;1715424;81;27966;-77
2022/02/28 14:21:47;;;;;;;3.95;2.85;;;;;;;12.80;27.12;102373.29;1702235;83;25890;-74
2022/02/28 14:24:19;;;;;;;5.87;2.52;;;;;;;12.54;27.05;102377.12;1699386;83;25805;-74
2022/02/28 14:26:50;;;;;;;8.73;3.25;;;;;;;12.28;27.19;102375.75;1714456;83;26375;-74
2022/02/28 14:29:17;;;;;;;4.28;2.52;;;;;;;12.10;27.58;102374.34;1765357;80;26353;-74
2022/02/28 14:31:48;;;;;;;6.42;2.90;;;;;;;12.05;27.89;102375.70;1745265;82;27341;-74
2022/02/28 14:34:16;;;;;;;4.75;2.50;;;;;;;12.05;28.08;102377.86;1767745;80;25712;-75
2022/02/28 14:36:45;;;;;;;7.17;2.70;;;;;;;12.04;28.18;102381.67;1781726;80;25821;-75
2022/02/28 14:39:17;;;;;;;3.95;2.50;;;;;;;11.96;27.92;102381.64;1772904;80;26003;-75
2022/02/28 14:41:45;;;;;;;3.00;2.05;;;;;;;11.80;28.36;102381.30;1775577;80;26382;-74
2022/02/28 14:44:14;;;;;;;7.10;2.40;;;;;;;11.65;28.10;102377.98;1771773;80;28018;-74
2022/02/28 14:46:44;;;;;;;4.57;2.13;;;;;;;11.46;28.61;102376.81;1785165;80;25582;-73
2022/02/28 14:49:10;;;;;;;;;;;;;;;11.32;28.73;102377.83;1788913;79;25329;-74
2022/02/28 14:51:39;;;;;;;5.55;2.50;;;;;;;11.16;28.36;102377.74;1779892;79;25726;-74
2022/02/28 14:54:06;;;;;;;10.08;3.52;;;;;;;11.01;28.80;102385.77;1756535;80;25329;-73
2022/02/28 14:56:33;;;;;;;7.75;2.98;;;;;;;10.87;28.84;102382.70;1775465;80;27295;-73
2022/02/28 14:59:01;;;;;;;4.25;2.20;;;;;;;10.76;28.71;102381.81;1755102;80;25767;-73
2022/02/28 15:01:29;;;;;;;4.70;3.22;;;;;;;10.63;28.95;102380.89;1767656;80;25395;-74
2022/02/28 15:03:56;;;;;;;9.98;3.90;;;;;;;10.57;29.33;102381.40;1768069;80;25740;-74
2022/02/28 15:06:22;;;;;;;7.28;4.08;;;;;;;10.43;29.26;102379.63;1784974;80;25713;-75
2022/02/28 15:08:51;;;;;;;5.67;3.08;;;;;;;10.24;29.35;102383.22;1775427;79;25719;-76
2022/02/28 15:11:17;;;;;;;10.05;4.03;;;;;;;10.04;29.48;102377.59;1781740;80;25692;-76
2022/02/28 15:13:44;;;;;;;7.55;3.02;;;;;;;9.96;30.00;102383.45;1768877;80;25763;-76
2022/02/28 15:16:12;;;;;;;7.92;3.25;;;;;;;9.85;29.67;102378.48;1769442;80;25762;-76
2022/02/28 15:18:38;;;;;;;4.62;2.75;;;;;;;9.65;30.00;102387.15;1751379;81;25721;-74
2022/02/28 15:21:05;;;;;;;6.53;3.10;;;;;;;9.43;30.06;102381.73;1756496;80;28022;-73
2022/02/28 15:23:31;;;;;;;7.90;3.90;;;;;;;9.24;30.09;102383.91;1783223;80;25715;-74
2022/02/28 15:25:58;;;;;;;4.83;3.00;;;;;;;8.97;30.09;102384.59;1724133;81;25704;-75
2022/02/28 15:28:24;;;;;;;8.63;3.80;;;;;;;8.76;30.26;102386.98;1708132;82;25803;-74
2022/02/28 15:30:51;;;;;;;5.50;3.12;;;;;;;8.57;30.27;102385.59;1695716;83;25351;-74
2022/02/28 15:33:19;;;;;;;7.70;3.08;;;;;;;8.35;30.24;102390.30;1720320;82;27988;-74
2022/02/28 15:35:45;;;;;;;5.40;2.98;;;;;;;8.06;30.43;102389.51;1708528;82;25700;-73
2022/02/28 15:38:14;;;;;;;7.37;3.65;;;;;;;7.77;30.53;102394.06;1746299;81;25646;-76
2022/02/28 15:40:40;;;;;;;7.65;3.22;;;;;;;7.46;30.75;102393.42;1742790;81;25743;-75
2022/02/28 15:43:07;;;;;;;9.18;3.02;;;;;;;7.17;30.92;102402.75;1738016;82;25728;-75
2022/02/28 15:45:33;;;;;;;6.75;3.00;;;;;;;6.86;31.12;102403.88;1736440;82;27313;-73
2022/02/28 15:48:00;;;;;;;5.53;2.65;;;;;;;6.61;31.64;102404.09;1714936;82;26364;-74
2022/02/28 15:50:26;;;;;;;70.83;33.63;;;;;;;6.33;31.86;102397.45;1736795;82;26444;-73
2022/02/28 15:52:53;;;;;;;14.03;7.25;;;;;;;6.09;32.14;102396.01;1737866;82;25762;-74
2022/02/28 15:55:22;;;;;;;11.08;4.42;;;;;;;5.84;32.35;102401.48;1713690;81;25680;-74
2022/02/28 15:57:52;;;;;;;10.05;3.92;;;;;;;5.63;32.53;102400.06;1736740;82;27022;-75
2022/02/28 16:00:22;;;;;;;7.58;3.00;;;;;;;5.44;32.46;102405.95;1737696;82;25880;-74